Time;durP1;ratioP1;P1;durP2;ratioP2;P2;SDS_P1;SDS_P2;PMS_P1;PMS_P2;Temp;Humidity;BMP_temperature;BMP_pressure;BME280_temperature;BME280_humidity;BME280_pressure;Samples;Min_cycle;Max_cycle;Signal;HPM_P1;HPM_P2
2022/05/10 00:00:30;;;;;;;;;13.50;12.00;;;;;;;;5102260;27;61716;-83
2022/05/10 00:02:56;;;;;;;;;10.50;9.50;;;;;;;;5103225;27;62223;-83
2022/05/10 00:05:25;;;;;;;;;11.25;10.50;;;;;;;;5084700;27;61807;-83
2022/05/10 00:07:51;;;;;;;;;10.00;9.00;;;;;;;;5103100;27;61932;-82
2022/05/10 00:10:16;;;;;;;;;13.25;9.25;;;;;;;;5102426;27;62677;-83
2022/05/10 00:12:41;;;;;;;;;9.25;8.25;;;;;;;;5103067;27;62155;-83
2022/05/10 00:15:07;;;;;;;;;16.00;11.00;;;;;;;;5103081;27;61935;-83
2022/05/10 00:17:35;;;;;;;;;12.75;10.75;;;;;;;;5102183;27;61867;-83
2022/05/10 00:20:01;;;;;;;;;11.25;9.00;;;;;;;;5102646;27;61811;-83
2022/05/10 00:22:27;;;;;;;;;16.75;13.00;;;;;;;;5102572;27;62142;-83
2022/05/10 00:24:52;;;;;;;;;17.00;13.25;;;;;;;;5102867;27;62152;-82
2022/05/10 00:27:18;;;;;;;;;7.50;7.50;;;;;;;;5103127;27;62024;-83
2022/05/10 00:29:43;;;;;;;;;16.25;11.00;;;;;;;;5101810;27;61894;-82
2022/05/10 00:32:09;;;;;;;;;3.25;2.00;;;;;;;;5102946;27;61724;-82
2022/05/10 00:34:35;;;;;;;;;11.25;11.25;;;;;;;;5102628;27;62108;-82
2022/05/10 00:37:00;;;;;;;;;10.50;9.25;;;;;;;;5103072;27;61955;-82
2022/05/10 00:39:25;;;;;;;;;12.00;11.00;;;;;;;;5083259;27;64678;-78
2022/05/10 00:41:56;;;;;;;;;12.75;11.00;;;;;;;;5102576;27;61885;-82
2022/05/10 00:44:31;;;;;;;;;16.00;12.75;;;;;;;;5102762;27;62329;-82
2022/05/10 00:47:05;;;;;;;;;10.25;9.75;;;;;;;;5102828;27;61777;-82
2022/05/10 00:49:53;;;;;;;;;11.25;10.75;;;;;;;;5083112;27;63643;-82
2022/05/10 00:52:26;;;;;;;;;17.00;14.25;;;;;;;;5102310;27;61884;-82
2022/05/10 00:55:06;;;;;;;;;16.00;11.25;;;;;;;;5083691;27;61965;-82
2022/05/10 00:57:31;;;;;;;;;12.00;11.50;;;;;;;;5102558;27;61953;-82
2022/05/10 01:00:06;;;;;;;;;12.50;11.00;;;;;;;;5083299;27;63673;-82
2022/05/10 01:02:35;;;;;;;;;12.25;11.25;;;;;;;;5101096;27;61972;-81
2022/05/10 01:05:04;;;;;;;;;8.00;7.00;;;;;;;;5082349;27;62074;-81
2022/05/10 01:07:33;;;;;;;;;12.50;10.00;;;;;;;;5082879;27;61854;-82
2022/05/10 01:10:05;;;;;;;;;14.50;10.50;;;;;;;;5101539;27;62157;-82
2022/05/10 01:12:35;;;;;;;;;12.00;11.00;;;;;;;;5102364;27;62134;-82
2022/05/10 01:15:12;;;;;;;;;15.50;13.00;;;;;;;;5101990;27;62297;-82
2022/05/10 01:17:38;;;;;;;;;12.50;10.75;;;;;;;;5102467;27;61988;-82
2022/05/10 01:20:04;;;;;;;;;18.50;14.00;;;;;;;;5101745;27;61766;-82
2022/05/10 01:22:44;;;;;;;;;14.00;13.00;;;;;;;;5101928;27;61938;-82
2022/05/10 01:25:18;;;;;;;;;15.50;14.00;;;;;;;;5083676;27;61850;-80
2022/05/10 01:27:46;;;;;;;;;13.00;11.75;;;;;;;;5102217;27;62099;-83
2022/05/10 01:30:18;;;;;;;;;13.50;10.00;;;;;;;;5104688;27;61969;-83
2022/05/10 01:35:38;;;;;;;;;14.00;14.00;;;;;;;;5105483;27;61865;-82
2022/05/10 01:38:07;;;;;;;;;11.50;11.00;;;;;;;;5105480;27;61798;-83
2022/05/10 01:40:35;;;;;;;;;13.25;11.50;;;;;;;;5104793;27;62863;-83
2022/05/10 01:43:10;;;;;;;;;10.50;9.75;;;;;;;;5105179;27;61885;-83
2022/05/10 01:45:36;;;;;;;;;15.25;11.75;;;;;;;;5105277;27;62062;-82
2022/05/10 01:48:03;;;;;;;;;15.75;14.50;;;;;;;;5105387;27;62114;-83
2022/05/10 01:50:28;;;;;;;;;15.50;13.25;;;;;;;;5104672;27;61919;-82
2022/05/10 01:53:12;;;;;;;;;14.25;12.75;;;;;;;;5086490;27;61948;-83
2022/05/10 01:55:51;;;;;;;;;11.75;11.25;;;;;;;;5105058;27;61702;-83
2022/05/10 01:58:18;;;;;;;;;13.00;12.00;;;;;;;;5086944;27;61846;-83
2022/05/10 02:00:47;;;;;;;;;19.25;16.25;;;;;;;;5104378;27;62809;-83
2022/05/10 02:03:16;;;;;;;;;22.00;15.50;;;;;;;;5105159;27;61923;-83
2022/05/10 02:05:45;;;;;;;;;23.50;15.25;;;;;;;;5104920;27;62012;-83
2022/05/10 02:08:28;;;;;;;;;16.25;15.50;;;;;;;;5105074;27;61805;-82
2022/05/10 02:10:56;;;;;;;;;18.50;14.00;;;;;;;;5085909;27;64034;-83
2022/05/10 02:13:25;;;;;;;;;22.00;15.25;;;;;;;;5104905;27;62297;-83
2022/05/10 02:15:56;;;;;;;;;20.00;15.50;;;;;;;;5104947;27;61851;-83
2022/05/10 02:18:21;;;;;;;;;17.75;15.75;;;;;;;;5086789;27;62056;-83
2022/05/10 02:20:53;;;;;;;;;16.50;14.50;;;;;;;;5104155;27;61755;-83
2022/05/10 02:23:38;;;;;;;;;17.50;15.75;;;;;;;;5104900;27;62047;-82
2022/05/10 02:26:07;;;;;;;;;16.00;14.25;;;;;;;;5104360;27;61858;-83
2022/05/10 02:28:41;;;;;;;;;15.75;14.75;;;;;;;;5105250;27;62099;-83
2022/05/10 02:31:27;;;;;;;;;17.75;15.50;;;;;;;;5110423;27;61491;-83
2022/05/10 02:33:54;;;;;;;;;17.50;17.50;;;;;;;;5087878;27;61868;-83
2022/05/10 02:36:19;;;;;;;;;20.00;17.25;;;;;;;;5104607;27;62044;-83
2022/05/10 02:38:45;;;;;;;;;22.00;19.00;;;;;;;;5104757;27;61900;-83
2022/05/10 02:41:19;;;;;;;;;18.50;17.50;;;;;;;;5102937;27;61856;-83
2022/05/10 02:43:58;;;;;;;;;15.00;11.25;;;;;;;;5104561;27;61922;-83
2022/05/10 02:46:24;;;;;;;;;20.25;19.75;;;;;;;;5099032;27;61866;-83
2022/05/10 02:48:49;;;;;;;;;17.25;14.50;;;;;;;;5104401;27;62801;-83
2022/05/10 02:51:15;;;;;;;;;17.00;14.00;;;;;;;;5103532;27;62968;-83
2022/05/10 02:53:40;;;;;;;;;17.00;14.50;;;;;;;;5085850;27;61907;-83
2022/05/10 02:56:08;;;;;;;;;11.75;11.25;;;;;;;;5104096;27;62570;-83
2022/05/10 02:58:33;;;;;;;;;19.25;15.75;;;;;;;;5085637;27;61955;-83
2022/05/10 03:01:02;;;;;;;;;15.25;15.25;;;;;;;;5103440;27;62611;-83
2022/05/10 03:03:28;;;;;;;;;18.75;13.50;;;;;;;;5085648;27;61813;-83
2022/05/10 03:05:54;;;;;;;;;19.50;17.50;;;;;;;;5104419;27;62138;-83
2022/05/10 03:08:23;;;;;;;;;16.25;16.25;;;;;;;;5103945;27;61869;-83
2022/05/10 03:10:49;;;;;;;;;16.00;15.00;;;;;;;;5103426;27;62574;-83
2022/05/10 03:13:14;;;;;;;;;14.00;12.00;;;;;;;;5103919;27;61678;-83
2022/05/10 03:15:40;;;;;;;;;17.75;15.00;;;;;;;;5104000;27;61677;-83
2022/05/10 03:18:05;;;;;;;;;15.50;13.25;;;;;;;;5104063;27;62048;-83
2022/05/10 03:20:31;;;;;;;;;19.50;17.00;;;;;;;;5103178;27;61927;-83
2022/05/10 03:22:57;;;;;;;;;17.75;14.00;;;;;;;;5103955;27;62331;-83
2022/05/10 03:25:23;;;;;;;;;21.25;13.75;;;;;;;;5103896;27;61883;-83
2022/05/10 03:27:49;;;;;;;;;16.00;13.33;;;;;;;;5104137;27;61793;-83
2022/05/10 03:30:14;;;;;;;;;16.75;15.50;;;;;;;;5102932;27;62095;-83
2022/05/10 03:32:40;;;;;;;;;19.00;17.00;;;;;;;;5085105;27;61867;-83
2022/05/10 03:35:05;;;;;;;;;22.00;16.00;;;;;;;;5103588;27;61983;-83
2022/05/10 03:37:31;;;;;;;;;16.25;14.50;;;;;;;;5103798;27;62156;-83
2022/05/10 03:39:57;;;;;;;;;15.50;15.25;;;;;;;;5102798;27;62147;-83
2022/05/10 03:42:22;;;;;;;;;17.75;17.00;;;;;;;;5084560;27;61771;-83
2022/05/10 03:44:52;;;;;;;;;20.25;16.00;;;;;;;;5084710;27;62192;-83
2022/05/10 03:47:18;;;;;;;;;18.00;11.75;;;;;;;;5084998;27;62026;-83
2022/05/10 03:49:44;;;;;;;;;17.25;13.75;;;;;;;;5102541;27;62905;-83
2022/05/10 03:52:09;;;;;;;;;18.00;16.25;;;;;;;;5103220;27;61956;-83
2022/05/10 03:54:34;;;;;;;;;15.00;14.50;;;;;;;;5103385;27;61986;-82
2022/05/10 03:57:00;;;;;;;;;18.75;14.75;;;;;;;;5085182;27;62075;-83
2022/05/10 03:59:25;;;;;;;;;22.00;15.50;;;;;;;;5102650;27;62985;-83
2022/05/10 04:01:50;;;;;;;;;17.75;15.50;;;;;;;;5102672;27;61734;-83
2022/05/10 04:04:16;;;;;;;;;17.25;14.75;;;;;;;;5103121;27;61924;-83
2022/05/10 04:06:41;;;;;;;;;13.00;13.00;;;;;;;;5103473;27;61760;-83
2022/05/10 04:09:06;;;;;;;;;15.75;12.50;;;;;;;;5102397;27;61710;-83
2022/05/10 04:11:31;;;;;;;;;14.25;12.00;;;;;;;;5102982;27;62029;-82
2022/05/10 04:13:57;;;;;;;;;15.00;13.25;;;;;;;;5103350;27;61744;-83
2022/05/10 04:16:22;;;;;;;;;14.25;12.50;;;;;;;;5102851;27;61666;-83
2022/05/10 04:18:47;;;;;;;;;13.50;11.25;;;;;;;;5102491;27;62627;-83
2022/05/10 04:21:13;;;;;;;;;14.25;13.50;;;;;;;;5084619;27;62162;-83
2022/05/10 04:23:38;;;;;;;;;16.50;13.50;;;;;;;;5084554;27;61702;-83
2022/05/10 04:26:04;;;;;;;;;14.50;14.00;;;;;;;;5084911;27;61771;-83
2022/05/10 04:28:30;;;;;;;;;18.75;13.50;;;;;;;;5102032;27;62683;-83
2022/05/10 04:30:55;;;;;;;;;16.00;12.50;;;;;;;;5102469;27;61823;-83
2022/05/10 04:33:22;;;;;;;;;16.00;12.75;;;;;;;;5102985;27;61850;-83
2022/05/10 04:35:48;;;;;;;;;14.75;12.25;;;;;;;;5084498;27;61891;-83
2022/05/10 04:38:14;;;;;;;;;14.50;12.25;;;;;;;;5083502;27;64690;-83
2022/05/10 04:43:23;;;;;;;;;12.50;11.50;;;;;;;;5102730;27;61899;-83
2022/05/10 04:45:48;;;;;;;;;16.50;12.25;;;;;;;;5102223;27;61805;-83
2022/05/10 04:48:13;;;;;;;;;13.25;10.25;;;;;;;;5083492;27;63693;-83
2022/05/10 04:50:39;;;;;;;;;16.50;14.50;;;;;;;;5102489;27;61973;-83
2022/05/10 04:53:04;;;;;;;;;15.00;12.75;;;;;;;;5084295;27;62113;-83
2022/05/10 04:55:29;;;;;;;;;18.25;14.75;;;;;;;;5102472;27;62227;-83
2022/05/10 04:57:54;;;;;;;;;12.00;12.00;;;;;;;;5101712;27;62588;-83
2022/05/10 05:00:20;;;;;;;;;15.50;13.75;;;;;;;;5102063;27;61763;-84
2022/05/10 05:02:46;;;;;;;;;20.50;11.75;;;;;;;;5102260;27;61993;-86
2022/05/10 05:05:12;;;;;;;;;15.25;11.25;;;;;;;;5106070;27;61909;-85
2022/05/10 05:07:38;;;;;;;;;17.50;16.00;;;;;;;;5105171;27;61619;-84
2022/05/10 05:10:04;;;;;;;;;11.25;11.00;;;;;;;;5105884;27;61861;-83
2022/05/10 05:12:31;;;;;;;;;10.25;9.75;;;;;;;;5105860;27;61802;-84
2022/05/10 05:14:56;;;;;;;;;12.75;9.00;;;;;;;;5105880;27;61783;-81
2022/05/10 05:17:22;;;;;;;;;17.25;12.25;;;;;;;;5105075;27;61696;-83
2022/05/10 05:19:47;;;;;;;;;13.50;11.25;;;;;;;;5087110;27;61750;-83
2022/05/10 05:22:13;;;;;;;;;14.00;10.00;;;;;;;;5105093;27;61781;-84
2022/05/10 05:24:38;;;;;;;;;10.75;8.50;;;;;;;;5085737;27;62185;-84
2022/05/10 05:27:03;;;;;;;;;8.75;8.50;;;;;;;;5085689;27;63636;-82
2022/05/10 05:29:29;;;;;;;;;7.25;7.25;;;;;;;;5104588;27;61944;-82
2022/05/10 05:31:55;;;;;;;;;7.50;7.25;;;;;;;;5104884;27;61746;-82
2022/05/10 05:34:20;;;;;;;;;6.50;6.50;;;;;;;;5106200;27;62087;-82
2022/05/10 05:37:32;;;;;;;;;5.75;4.75;;;;;;;;5103771;27;61775;-82
2022/05/10 05:39:31;;;;;;;;;4.50;4.00;;;;;;;;5103285;27;61928;-79
2022/05/10 05:41:57;;;;;;;;;8.00;7.00;;;;;;;;5104712;27;61924;-80
2022/05/10 05:44:23;;;;;;;;;6.75;6.00;;;;;;;;5104958;27;61679;-82
2022/05/10 05:46:49;;;;;;;;;8.00;6.00;;;;;;;;5085816;27;63719;-81
2022/05/10 05:49:14;;;;;;;;;10.50;8.50;;;;;;;;5104811;27;61734;-82
2022/05/10 05:51:39;;;;;;;;;6.25;6.25;;;;;;;;5104735;27;61746;-80
2022/05/10 05:54:08;;;;;;;;;6.00;5.00;;;;;;;;5104212;27;61695;-80
2022/05/10 05:56:34;;;;;;;;;8.50;7.50;;;;;;;;5103057;27;62053;-80
2022/05/10 05:58:59;;;;;;;;;8.00;7.75;;;;;;;;5103813;27;62048;-80
2022/05/10 06:01:24;;;;;;;;;5.00;5.00;;;;;;;;5104174;27;61941;-79
2022/05/10 06:03:51;;;;;;;;;7.00;7.00;;;;;;;;5104135;27;62112;-80
2022/05/10 06:06:16;;;;;;;;;5.75;5.75;;;;;;;;5103675;27;61763;-80
2022/05/10 06:08:42;;;;;;;;;7.75;6.25;;;;;;;;5084808;27;61956;-81
2022/05/10 06:11:07;;;;;;;;;9.00;8.00;;;;;;;;5104771;27;62057;-81
2022/05/10 06:13:34;;;;;;;;;10.25;7.00;;;;;;;;5104934;27;61849;-81
2022/05/10 06:16:03;;;;;;;;;7.50;6.25;;;;;;;;5083846;27;64868;-84
2022/05/10 06:18:28;;;;;;;;;6.75;6.75;;;;;;;;5104167;27;61921;-81
2022/05/10 06:20:54;;;;;;;;;7.75;7.50;;;;;;;;5104268;27;61903;-81
2022/05/10 06:23:19;;;;;;;;;7.75;6.50;;;;;;;;5105199;27;61861;-81
2022/05/10 06:25:44;;;;;;;;;9.25;7.25;;;;;;;;5103597;27;61895;-82
2022/05/10 06:28:10;;;;;;;;;6.00;5.75;;;;;;;;5103107;27;61789;-82
2022/05/10 06:30:35;;;;;;;;;7.00;7.00;;;;;;;;5103672;27;61735;-83
2022/05/10 06:33:00;;;;;;;;;10.75;7.25;;;;;;;;5103985;27;61879;-79
2022/05/10 06:35:26;;;;;;;;;9.75;7.00;;;;;;;;5101391;27;61703;-80
2022/05/10 06:40:35;;;;;;;;;8.75;8.75;;;;;;;;5103588;27;61773;-81
2022/05/10 06:43:00;;;;;;;;;9.00;9.00;;;;;;;;5103681;27;62158;-82
2022/05/10 06:45:26;;;;;;;;;6.00;5.75;;;;;;;;5102477;27;61743;-83
2022/05/10 06:47:51;;;;;;;;;8.75;8.25;;;;;;;;5102539;27;61906;-79
2022/05/10 06:50:18;;;;;;;;;8.25;7.75;;;;;;;;5102783;27;61781;-83
2022/05/10 06:52:44;;;;;;;;;11.00;8.50;;;;;;;;5103199;27;61730;-83
2022/05/10 06:55:10;;;;;;;;;8.75;7.75;;;;;;;;5101870;27;61673;-83
2022/05/10 06:57:35;;;;;;;;;7.00;7.00;;;;;;;;5102910;27;61676;-82
2022/05/10 07:00:01;;;;;;;;;7.00;7.00;;;;;;;;5083920;27;61727;-82
2022/05/10 07:02:26;;;;;;;;;7.50;7.00;;;;;;;;5103356;27;62116;-83
2022/05/10 07:04:52;;;;;;;;;9.50;7.25;;;;;;;;5084233;27;63454;-83
2022/05/10 07:07:18;;;;;;;;;10.25;8.25;;;;;;;;5103021;27;61896;-83
2022/05/10 07:09:44;;;;;;;;;9.00;8.00;;;;;;;;5102453;27;61778;-83
2022/05/10 07:12:09;;;;;;;;;10.00;8.00;;;;;;;;5084883;27;61919;-82
2022/05/10 07:14:35;;;;;;;;;15.75;11.50;;;;;;;;5103002;27;61930;-83
2022/05/10 07:17:00;;;;;;;;;12.25;8.00;;;;;;;;5084626;27;62115;-83
2022/05/10 07:19:25;;;;;;;;;9.25;8.75;;;;;;;;5103609;27;61990;-82
2022/05/10 07:21:50;;;;;;;;;6.75;6.75;;;;;;;;5103354;27;61856;-82
2022/05/10 07:24:19;;;;;;;;;8.75;8.75;;;;;;;;5101428;27;61806;-82
2022/05/10 07:26:45;;;;;;;;;11.00;6.25;;;;;;;;5102999;27;61877;-82
2022/05/10 07:29:11;;;;;;;;;10.25;7.00;;;;;;;;5084697;27;62012;-82
2022/05/10 07:31:36;;;;;;;;;7.25;6.25;;;;;;;;5084157;27;62074;-82
2022/05/10 07:34:01;;;;;;;;;11.25;9.00;;;;;;;;5102427;27;61795;-82
2022/05/10 07:36:33;;;;;;;;;5.75;5.50;;;;;;;;5103113;27;61797;-82
2022/05/10 07:38:59;;;;;;;;;9.25;8.25;;;;;;;;5102281;27;61930;-82
2022/05/10 07:41:24;;;;;;;;;11.25;8.25;;;;;;;;5102776;27;61682;-82
2022/05/10 07:43:50;;;;;;;;;7.00;7.00;;;;;;;;5102030;27;61832;-82
2022/05/10 07:46:16;;;;;;;;;9.00;7.75;;;;;;;;5082912;27;61756;-82
2022/05/10 07:48:42;;;;;;;;;9.50;9.00;;;;;;;;5101579;27;61881;-82
2022/05/10 07:51:07;;;;;;;;;6.50;5.50;;;;;;;;5101883;27;61811;-82
2022/05/10 07:53:33;;;;;;;;;8.50;7.75;;;;;;;;5101356;27;61947;-82
2022/05/10 07:55:58;;;;;;;;;7.50;7.00;;;;;;;;5102735;27;61832;-82
2022/05/10 07:58:24;;;;;;;;;9.00;6.25;;;;;;;;5102622;27;62048;-82
2022/05/10 08:00:49;;;;;;;;;8.75;7.50;;;;;;;;5102494;27;61849;-82
2022/05/10 08:03:16;;;;;;;;;7.75;7.75;;;;;;;;5101583;27;61869;-82
2022/05/10 08:05:41;;;;;;;;;8.00;7.25;;;;;;;;5102350;27;62077;-82
2022/05/10 08:08:07;;;;;;;;;9.75;7.75;;;;;;;;5101524;27;61841;-82
2022/05/10 08:10:33;;;;;;;;;11.00;8.50;;;;;;;;5084363;27;61771;-84
2022/05/10 08:12:58;;;;;;;;;6.50;4.00;;;;;;;;5101743;27;62472;-83
2022/05/10 08:15:23;;;;;;;;;10.00;8.00;;;;;;;;5083446;27;61857;-83
2022/05/10 08:17:49;;;;;;;;;9.25;6.25;;;;;;;;5084249;27;62101;-83
2022/05/10 08:20:14;;;;;;;;;4.25;4.25;;;;;;;;5102338;27;62063;-82
2022/05/10 08:22:40;;;;;;;;;8.50;8.50;;;;;;;;5083486;27;65134;-83
2022/05/10 08:25:05;;;;;;;;;7.50;7.00;;;;;;;;5102322;27;61753;-83
2022/05/10 08:27:31;;;;;;;;;7.00;7.00;;;;;;;;5102252;27;61941;-83
2022/05/10 08:29:56;;;;;;;;;5.50;4.75;;;;;;;;5102514;27;62086;-84
2022/05/10 08:32:21;;;;;;;;;6.00;6.00;;;;;;;;5101251;27;61834;-82
2022/05/10 08:34:47;;;;;;;;;9.75;8.00;;;;;;;;5102315;27;61972;-83
2022/05/10 08:37:12;;;;;;;;;7.50;7.50;;;;;;;;5102115;27;62070;-83
2022/05/10 08:39:37;;;;;;;;;6.50;5.50;;;;;;;;5101116;27;61788;-83
2022/05/10 08:42:19;;;;;;;;;7.25;7.25;;;;;;;;5101505;27;62750;-82
2022/05/10 08:44:50;;;;;;;;;3.75;3.75;;;;;;;;5101880;27;62001;-83
2022/05/10 08:47:16;;;;;;;;;10.75;6.75;;;;;;;;5101612;27;61939;-83
2022/05/10 08:49:45;;;;;;;;;8.00;8.00;;;;;;;;5083481;27;61826;-84
2022/05/10 08:52:12;;;;;;;;;8.75;6.00;;;;;;;;5101124;27;61879;-83
2022/05/10 08:54:38;;;;;;;;;8.75;6.50;;;;;;;;5101603;27;61723;-82
2022/05/10 08:57:24;;;;;;;;;5.00;5.00;;;;;;;;5102171;27;61754;-83
2022/05/10 09:00:00;;;;;;;;;7.50;7.50;;;;;;;;5083593;27;61784;-83
2022/05/10 09:02:28;;;;;;;;;11.00;7.25;;;;;;;;5100863;27;61879;-82
2022/05/10 09:05:02;;;;;;;;;8.25;7.00;;;;;;;;5083265;27;61938;-83
2022/05/10 09:07:35;;;;;;;;;7.25;6.75;;;;;;;;5101455;27;61809;-82
2022/05/10 09:10:12;;;;;;;;;7.00;6.33;;;;;;;;5083008;27;62029;-82
2022/05/10 09:13:07;;;;;;;;;10.25;7.75;;;;;;;;5100877;27;61812;-83
2022/05/10 09:15:36;;;;;;;;;4.33;3.33;;;;;;;;5087299;27;61999;-84
2022/05/10 09:18:16;;;;;;;;;5.33;5.33;;;;;;;;5101622;27;61749;-83
2022/05/10 09:20:52;;;;;;;;;8.50;6.50;;;;;;;;5101170;27;61943;-83
2022/05/10 09:23:19;;;;;;;;;10.67;6.33;;;;;;;;5101409;27;61724;-84
2022/05/10 09:25:45;;;;;;;;;10.67;6.67;;;;;;;;5100962;27;61921;-84
2022/05/10 09:28:18;;;;;;;;;5.67;5.67;;;;;;;;5101595;27;61890;-83
2022/05/10 09:34:45;;;;;;;;;10.00;7.33;;;;;;;;5081885;27;62033;-84
2022/05/10 09:36:21;;;;;;;;;6.33;6.00;;;;;;;;5098154;27;62149;-83
2022/05/10 09:38:47;;;;;;;;;8.67;6.33;;;;;;;;5080820;28;62180;-83
2022/05/10 09:41:27;;;;;;;;;5.67;5.67;;;;;;;;5081190;28;61772;-84
2022/05/10 09:43:53;;;;;;;;;6.00;6.00;;;;;;;;5091184;27;61724;-84
2022/05/10 09:46:24;;;;;;;;;5.00;5.00;;;;;;;;5100143;27;62014;-83
2022/05/10 09:48:50;;;;;;;;;4.33;4.33;;;;;;;;5081067;27;61897;-83
2022/05/10 09:51:24;;;;;;;;;3.33;3.33;;;;;;;;5104608;27;61898;-81
2022/05/10 09:53:50;;;;;;;;;5.00;5.00;;;;;;;;5104120;27;62096;-80
2022/05/10 09:56:28;;;;;;;;;7.00;5.33;;;;;;;;5104346;27;61912;-85
2022/05/10 09:58:55;;;;;;;;;8.00;4.00;;;;;;;;5102490;27;61763;-84
2022/05/10 10:01:39;;;;;;;;;7.00;5.33;;;;;;;;5103338;27;61890;-84
2022/05/10 10:04:21;;;;;;;;;5.00;5.00;;;;;;;;5102557;27;62620;-83
2022/05/10 10:07:07;;;;;;;;;7.67;6.33;;;;;;;;5085576;27;62101;-84
2022/05/10 10:09:34;;;;;;;;;6.00;4.33;;;;;;;;5103870;27;61750;-85
2022/05/10 10:11:59;;;;;;;;;6.67;5.00;;;;;;;;5085771;27;61872;-81
2022/05/10 10:14:44;;;;;;;;;6.33;4.67;;;;;;;;5085588;27;63792;-84
2022/05/10 10:17:28;;;;;;;;;6.67;6.00;;;;;;;;5105659;27;61945;-85
2022/05/10 10:20:01;;;;;;;;;5.33;5.00;;;;;;;;5109740;27;61956;-85
2022/05/10 10:22:30;;;;;;;;;6.00;6.00;;;;;;;;5101399;27;61870;-85
2022/05/10 10:25:04;;;;;;;;;6.00;5.00;;;;;;;;5085143;27;63959;-86
2022/05/10 10:27:35;;;;;;;;;5.67;5.67;;;;;;;;5104334;27;61774;-85
2022/05/10 10:30:04;;;;;;;;;6.33;4.00;;;;;;;;5104339;27;61765;-87
2022/05/10 10:32:33;;;;;;;;;5.00;5.00;;;;;;;;5104378;27;61734;-87
2022/05/10 10:35:11;;;;;;;;;5.00;5.00;;;;;;;;5103356;27;62387;-87
2022/05/10 10:37:39;;;;;;;;;5.00;5.00;;;;;;;;5104176;27;61725;-86
2022/05/10 10:40:12;;;;;;;;;4.67;4.67;;;;;;;;5103907;27;61997;-87
2022/05/10 10:43:06;;;;;;;;;5.00;4.00;;;;;;;;5120118;27;62103;-85
2022/05/10 10:45:35;;;;;;;;;3.67;3.67;;;;;;;;5093070;27;62831;-83
2022/05/10 10:48:16;;;;;;;;;3.00;3.00;;;;;;;;5103229;27;61750;-83
2022/05/10 10:50:42;;;;;;;;;8.00;5.33;;;;;;;;5083705;27;61804;-84
2022/05/10 10:53:08;;;;;;;;;6.00;5.00;;;;;;;;5103089;27;61840;-84
2022/05/10 10:55:36;;;;;;;;;7.33;6.33;;;;;;;;5101676;27;62187;-86
2022/05/10 10:58:08;;;;;;;;;8.00;4.00;;;;;;;;5103261;27;61780;-85
2022/05/10 11:00:41;;;;;;;;;8.00;6.67;;;;;;;;5100578;27;61876;-85
2022/05/10 11:03:12;;;;;;;;;5.33;5.33;;;;;;;;5083925;27;62199;-85
2022/05/10 11:05:56;;;;;;;;;6.00;6.00;;;;;;;;5102108;27;62281;-85
2022/05/10 11:08:21;;;;;;;;;3.33;3.00;;;;;;;;5101489;27;61986;-86
2022/05/10 11:10:53;;;;;;;;;5.00;4.00;;;;;;;;5084200;27;61957;-84
2022/05/10 11:13:36;;;;;;;;;3.00;2.00;;;;;;;;5103532;27;61804;-85
2022/05/10 11:16:22;;;;;;;;;7.33;6.00;;;;;;;;5101648;27;63587;-85
2022/05/10 11:18:53;;;;;;;;;7.67;5.67;;;;;;;;5102051;27;61876;-82
2022/05/10 11:21:35;;;;;;;;;5.33;5.33;;;;;;;;5102602;27;61889;-86
2022/05/10 11:24:07;;;;;;;;;6.33;5.33;;;;;;;;5101776;27;61902;-85
2022/05/10 11:26:41;;;;;;;;;5.00;3.00;;;;;;;;5100668;27;61944;-86
2022/05/10 11:29:25;;;;;;;;;6.67;5.33;;;;;;;;5101981;27;62056;-85
2022/05/10 11:31:57;;;;;;;;;5.33;4.33;;;;;;;;5102832;27;61788;-85
2022/05/10 11:34:28;;;;;;;;;4.67;4.67;;;;;;;;5103453;27;61720;-86
2022/05/10 11:36:54;;;;;;;;;5.67;5.67;;;;;;;;5080287;27;63812;-85
2022/05/10 11:39:19;;;;;;;;;6.33;6.33;;;;;;;;5080788;28;61846;-85
2022/05/10 11:42:03;;;;;;;;;7.33;3.67;;;;;;;;5082585;28;61885;-85
2022/05/10 11:44:47;;;;;;;;;5.33;5.33;;;;;;;;5084223;27;61872;-85
2022/05/10 11:47:13;;;;;;;;;9.67;5.67;;;;;;;;5101353;27;63169;-83
2022/05/10 11:49:57;;;;;;;;;8.67;6.33;;;;;;;;5083177;27;61998;-86
2022/05/10 11:52:33;;;;;;;;;6.00;5.00;;;;;;;;5103037;27;61682;-86
2022/05/10 11:55:07;;;;;;;;;6.00;5.33;;;;;;;;5084440;27;61786;-86
2022/05/10 11:57:33;;;;;;;;;6.00;4.33;;;;;;;;5102441;27;62884;-86
2022/05/10 12:00:22;;;;;;;;;9.67;5.67;;;;;;;;5101757;27;62045;-86
2022/05/10 12:02:47;;;;;;;;;8.67;4.67;;;;;;;;5037644;28;62154;-86
2022/05/10 12:05:21;;;;;;;;;4.00;4.00;;;;;;;;5038825;28;61930;-84
2022/05/10 12:07:49;;;;;;;;;4.00;4.00;;;;;;;;5038045;28;62007;-87
2022/05/10 12:10:29;;;;;;;;;3.67;1.67;;;;;;;;5038293;28;62020;-87
2022/05/10 12:12:56;;;;;;;;;6.67;6.33;;;;;;;;5037658;28;61926;-87
2022/05/10 12:21:21;;;;;;;;;5.67;5.00;;;;;;;;4999238;28;62066;-86
2022/05/10 12:24:02;;;;;;;;;6.00;3.67;;;;;;;;4999020;28;62156;-86
2022/05/10 12:26:36;;;;;;;;;6.00;6.00;;;;;;;;4999306;28;61808;-86
2022/05/10 12:29:03;;;;;;;;;8.00;5.00;;;;;;;;4998421;28;62027;-86
2022/05/10 12:31:35;;;;;;;;;4.67;3.33;;;;;;;;4998742;28;62106;-86
2022/05/10 12:34:08;;;;;;;;;3.67;3.67;;;;;;;;4998759;28;62052;-85
2022/05/10 12:36:35;;;;;;;;;4.00;4.00;;;;;;;;4984152;28;62028;-87
2022/05/10 12:39:16;;;;;;;;;5.00;5.00;;;;;;;;4962269;28;61904;-86
2022/05/10 12:42:06;;;;;;;;;4.67;3.33;;;;;;;;4996320;28;62118;-86
2022/05/10 12:44:40;;;;;;;;;4.00;4.00;;;;;;;;4982299;28;62076;-87
2022/05/10 12:47:14;;;;;;;;;5.00;5.00;;;;;;;;5018750;28;61822;-86
2022/05/10 12:49:46;;;;;;;;;5.67;5.67;;;;;;;;5017392;28;61963;-85
2022/05/10 12:52:20;;;;;;;;;6.33;6.33;;;;;;;;5017791;28;61909;-86
2022/05/10 12:54:48;;;;;;;;;7.00;6.00;;;;;;;;5018482;28;61950;-86
2022/05/10 12:57:24;;;;;;;;;4.00;4.00;;;;;;;;5028846;27;62274;-86
2022/05/10 12:59:55;;;;;;;;;6.33;5.33;;;;;;;;5100809;27;62848;-87
2022/05/10 13:02:21;;;;;;;;;5.33;4.33;;;;;;;;5083014;27;61995;-87
2022/05/10 13:04:50;;;;;;;;;2.67;2.67;;;;;;;;5102224;27;62653;-86
2022/05/10 13:07:16;;;;;;;;;5.33;5.33;;;;;;;;5083610;27;61943;-84
2022/05/10 13:09:43;;;;;;;;;5.00;2.67;;;;;;;;5100920;27;61786;-85
2022/05/10 13:12:13;;;;;;;;;3.67;3.33;;;;;;;;5101665;27;62244;-84
2022/05/10 13:14:43;;;;;;;;;6.33;3.67;;;;;;;;5083405;27;61971;-85
2022/05/10 13:17:10;;;;;;;;;3.00;3.00;;;;;;;;5083192;27;61904;-84
2022/05/10 13:19:43;;;;;;;;;5.00;3.67;;;;;;;;5100813;27;63151;-85
2022/05/10 13:22:10;;;;;;;;;5.00;5.00;;;;;;;;5101628;27;61803;-84
2022/05/10 13:24:36;;;;;;;;;2.33;2.33;;;;;;;;5083805;27;61771;-84
2022/05/10 13:27:02;;;;;;;;;2.00;2.00;;;;;;;;5105233;27;61814;-86
2022/05/10 13:29:39;;;;;;;;;5.00;4.00;;;;;;;;5085556;27;64006;-85
2022/05/10 13:32:08;;;;;;;;;4.00;2.67;;;;;;;;5104369;27;61695;-85
2022/05/10 13:34:45;;;;;;;;;6.33;5.00;;;;;;;;5105296;27;61844;-85
2022/05/10 13:37:20;;;;;;;;;4.33;4.33;;;;;;;;5104981;27;61931;-85
2022/05/10 13:39:45;;;;;;;;;3.33;3.33;;;;;;;;5103782;27;61777;-86
2022/05/10 13:42:11;;;;;;;;;4.00;4.00;;;;;;;;5104912;27;61841;-86
2022/05/10 13:44:39;;;;;;;;;4.33;4.00;;;;;;;;5104107;27;62083;-86
2022/05/10 13:47:05;;;;;;;;;4.00;3.33;;;;;;;;5081736;27;61960;-84
2022/05/10 13:49:34;;;;;;;;;3.33;3.33;;;;;;;;5103205;27;62362;-86
2022/05/10 13:52:03;;;;;;;;;3.67;3.33;;;;;;;;5104899;27;61804;-84
2022/05/10 13:54:29;;;;;;;;;3.33;2.67;;;;;;;;5103907;27;62048;-87
2022/05/10 13:57:13;;;;;;;;;3.67;3.67;;;;;;;;5104876;27;61721;-87
2022/05/10 13:59:39;;;;;;;;;3.00;3.00;;;;;;;;5085159;27;63868;-85
2022/05/10 14:02:11;;;;;;;;;4.00;2.67;;;;;;;;5085900;27;61981;-85
2022/05/10 14:04:44;;;;;;;;;6.33;6.33;;;;;;;;5105039;27;61774;-86
2022/05/10 14:07:12;;;;;;;;;5.00;4.33;;;;;;;;5104880;27;62055;-87
2022/05/10 14:09:40;;;;;;;;;4.00;4.00;;;;;;;;5103526;27;62303;-87
2022/05/10 14:12:11;;;;;;;;;4.33;3.33;;;;;;;;5085060;27;61854;-86
2022/05/10 14:14:36;;;;;;;;;4.00;4.00;;;;;;;;5103959;27;62056;-87
2022/05/10 14:17:03;;;;;;;;;2.67;2.67;;;;;;;;5103978;27;61877;-85
2022/05/10 14:19:33;;;;;;;;;3.67;3.67;;;;;;;;5103739;27;61839;-87
2022/05/10 14:22:04;;;;;;;;;4.67;4.67;;;;;;;;5104408;27;62016;-86
2022/05/10 14:24:34;;;;;;;;;3.67;3.67;;;;;;;;5103925;27;61841;-86
2022/05/10 14:27:09;;;;;;;;;4.33;4.33;;;;;;;;5102010;27;61770;-87
2022/05/10 14:29:36;;;;;;;;;2.67;2.67;;;;;;;;5103489;27;62587;-85
2022/05/10 14:32:05;;;;;;;;;3.00;3.00;;;;;;;;5103343;27;61792;-81
2022/05/10 14:34:50;;;;;;;;;4.00;3.00;;;;;;;;5081800;27;61928;-86
2022/05/10 14:37:38;;;;;;;;;1.67;1.67;;;;;;;;5100206;27;61792;-86
2022/05/10 14:40:12;;;;;;;;;3.33;3.33;;;;;;;;5102691;27;61766;-81
2022/05/10 14:42:41;;;;;;;;;3.00;3.00;;;;;;;;5103459;27;61853;-86
2022/05/10 14:45:15;;;;;;;;;3.00;3.00;;;;;;;;5102885;27;61753;-86
2022/05/10 14:47:41;;;;;;;;;5.00;4.00;;;;;;;;5084960;27;62079;-86
2022/05/10 14:50:26;;;;;;;;;5.33;4.00;;;;;;;;5102000;27;61849;-86
2022/05/10 14:53:08;;;;;;;;;5.33;4.00;;;;;;;;5084668;27;61836;-86
2022/05/10 14:55:34;;;;;;;;;4.00;4.00;;;;;;;;5102134;27;61961;-86
2022/05/10 14:57:59;;;;;;;;;2.67;2.00;;;;;;;;5102642;27;61928;-84
2022/05/10 15:01:08;;;;;;;;;4.00;3.67;;;;;;;;5100352;27;62001;-85
2022/05/10 15:03:17;;;;;;;;;4.67;3.67;;;;;;;;5093349;27;61773;-87